createdAt,value
2023-10-07T00:01:38.373Z,13.96
2023-10-07T00:06:46.777Z,13.97
2023-10-07T00:11:52.840Z,14.01
2023-10-07T00:17:07.099Z,14.04
2023-10-07T00:22:14.818Z,14.05
2023-10-07T00:27:27.983Z,14.07
2023-10-07T00:32:34.089Z,14.12
2023-10-07T00:37:45.154Z,14.18
2023-10-07T00:42:51.051Z,14.21
2023-10-07T00:48:01.886Z,14.26
2023-10-07T00:53:10.712Z,14.31
2023-10-07T00:58:20.975Z,14.33
2023-10-07T01:03:27.630Z,14.38
2023-10-07T01:08:47.524Z,14.42
2023-10-07T01:13:57.861Z,14.39
2023-10-07T01:19:19.037Z,14.18
2023-10-07T01:24:35.496Z,13.94
2023-10-07T01:29:43.344Z,13.71
2023-10-07T01:34:53.551Z,13.50
2023-10-07T01:39:59.298Z,13.28
2023-10-07T01:45:21.084Z,13.15
2023-10-07T01:50:27.262Z,13.04
2023-10-07T01:55:35.300Z,12.98
2023-10-07T02:00:45.680Z,12.95
2023-10-07T02:05:50.259Z,12.89
2023-10-07T02:11:00.508Z,12.84
2023-10-07T02:16:09.465Z,12.81
2023-10-07T02:21:13.541Z,12.81
2023-10-07T02:26:22.025Z,12.81
2023-10-07T02:31:30.765Z,12.81
2023-10-07T02:36:38.139Z,12.85
2023-10-07T02:41:47.367Z,12.88
2023-10-07T02:46:56.138Z,12.90
2023-10-07T02:52:00.453Z,12.89
2023-10-07T02:57:10.504Z,12.92
2023-10-07T03:02:19.013Z,12.99
2023-10-07T03:07:24.820Z,13.02
2023-10-07T03:12:30.650Z,13.03
2023-10-07T03:17:40.854Z,13.06
2023-10-07T03:23:09.119Z,13.11
2023-10-07T03:28:17.873Z,13.14
2023-10-07T03:33:25.582Z,13.17
2023-10-07T03:38:31.119Z,13.22
2023-10-07T03:43:36.887Z,13.30
2023-10-07T03:48:44.705Z,13.36
2023-10-07T03:53:51.222Z,13.37
2023-10-07T03:58:56.962Z,13.42
2023-10-07T04:04:03.152Z,13.51
2023-10-07T04:09:09.458Z,13.50
2023-10-07T04:14:28.738Z,13.51
2023-10-07T04:19:42.248Z,13.53
2023-10-07T04:24:48.009Z,13.57
2023-10-07T04:29:54.023Z,13.63
2023-10-07T04:35:17.699Z,13.71
2023-10-07T04:40:23.733Z,13.76
2023-10-07T04:45:39.245Z,13.83
2023-10-07T04:50:46.657Z,13.89
2023-10-07T04:56:01.019Z,13.87
2023-10-07T05:01:08.154Z,13.82
2023-10-07T05:06:13.753Z,13.80
2023-10-07T05:11:19.332Z,13.77
2023-10-07T05:16:26.521Z,13.74
2023-10-07T05:21:32.617Z,13.73
2023-10-07T05:26:41.993Z,13.72
2023-10-07T05:31:48.976Z,13.69
2023-10-07T05:36:58.509Z,13.69
2023-10-07T05:42:05.131Z,13.70
2023-10-07T05:47:10.871Z,13.74
2023-10-07T05:52:15.961Z,13.78
2023-10-07T05:57:22.327Z,13.87
2023-10-07T06:02:28.814Z,13.96
2023-10-07T06:07:33.091Z,14.09
2023-10-07T06:12:37.321Z,14.27
2023-10-07T06:17:43.348Z,14.45
2023-10-07T06:22:47.707Z,14.64
2023-10-07T06:27:53.740Z,14.83
2023-10-07T06:33:05.355Z,15.04
2023-10-07T06:38:10.851Z,15.22
2023-10-07T06:43:16.362Z,15.34
2023-10-07T06:48:25.997Z,15.38
2023-10-07T06:53:32.049Z,15.45
2023-10-07T06:58:38.105Z,15.57
2023-10-07T07:03:45.178Z,15.78
2023-10-07T07:08:52.035Z,16.02
2023-10-07T07:14:01.425Z,16.12
2023-10-07T07:19:08.162Z,16.44
2023-10-07T07:24:13.928Z,16.87
2023-10-07T07:29:19.640Z,16.90
2023-10-07T07:34:28.359Z,16.89
2023-10-07T07:39:34.149Z,16.89
2023-10-07T07:44:38.478Z,16.84
2023-10-07T07:49:44.087Z,17.36
2023-10-07T07:54:49.741Z,17.67
2023-10-07T07:59:55.692Z,18.09
2023-10-07T08:05:04.540Z,18.58
2023-10-07T08:10:12.108Z,18.81
2023-10-07T08:15:24.265Z,18.95
2023-10-07T08:20:34.965Z,18.97
2023-10-07T08:25:47.232Z,19.02
2023-10-07T08:30:54.461Z,18.89
2023-10-07T08:36:00.170Z,18.78
2023-10-07T08:41:08.954Z,18.52
2023-10-07T08:46:20.835Z,18.44
2023-10-07T08:51:28.428Z,18.40
2023-10-07T08:56:38.393Z,18.59
2023-10-07T09:01:48.564Z,18.53
2023-10-07T09:06:54.619Z,18.28
2023-10-07T09:12:09.392Z,18.21
2023-10-07T09:17:15.002Z,18.62
2023-10-07T09:22:41.699Z,18.68
2023-10-07T09:27:57.234Z,18.38
2023-10-07T09:33:07.662Z,18.38
2023-10-07T09:38:35.196Z,18.17
2023-10-07T09:43:44.495Z,17.91
2023-10-07T09:48:52.797Z,17.71
2023-10-07T09:54:28.952Z,17.62
2023-10-07T09:59:49.720Z,17.64
2023-10-07T10:05:01.601Z,17.58
2023-10-07T10:10:14.113Z,17.44
2023-10-07T10:15:21.068Z,17.45
2023-10-07T10:20:45.926Z,17.83
2023-10-07T10:25:56.824Z,18.08
2023-10-07T10:31:01.872Z,18.21
2023-10-07T10:36:09.145Z,18.29
2023-10-07T10:41:15.887Z,18.32
2023-10-07T10:46:21.296Z,18.39
2023-10-07T10:51:31.115Z,18.45
2023-10-07T10:56:44.931Z,18.52
2023-10-07T11:01:53.971Z,18.52
2023-10-07T11:06:59.690Z,18.62
2023-10-07T11:12:20.275Z,18.66
2023-10-07T11:17:25.886Z,18.54
2023-10-07T11:22:39.898Z,18.39
2023-10-07T11:27:48.308Z,18.28
2023-10-07T11:32:56.123Z,18.13
2023-10-07T11:38:03.891Z,18.13
2023-10-07T11:43:09.847Z,18.17
2023-10-07T11:48:15.765Z,18.16
2023-10-07T11:53:21.072Z,18.10
2023-10-07T11:58:27.714Z,17.96
2023-10-07T12:03:33.272Z,17.78
2023-10-07T12:08:39.447Z,17.57
2023-10-07T12:13:46.499Z,17.43
2023-10-07T12:18:51.955Z,17.37
2023-10-07T12:23:57.486Z,17.48
2023-10-07T12:29:02.256Z,17.71
2023-10-07T12:34:12.111Z,17.69
2023-10-07T12:39:18.053Z,17.76
2023-10-07T12:44:23.694Z,17.90
2023-10-07T12:49:29.468Z,18.01
2023-10-07T12:54:35.243Z,18.04
2023-10-07T12:59:41.139Z,18.10
2023-10-07T13:04:50.397Z,18.17
2023-10-07T13:09:57.859Z,18.21
2023-10-07T13:15:04.445Z,18.18
2023-10-07T13:20:10.509Z,18.01
2023-10-07T13:25:18.217Z,17.89
2023-10-07T13:30:27.547Z,17.74
2023-10-07T13:35:34.345Z,17.52
2023-10-07T13:40:40.404Z,17.32
2023-10-07T13:45:47.211Z,17.24
2023-10-07T13:50:58.851Z,17.20
2023-10-07T13:56:13.621Z,17.13
2023-10-07T14:01:21.551Z,17.06
2023-10-07T14:06:28.875Z,16.99
2023-10-07T14:11:37.974Z,16.84
2023-10-07T14:16:43.677Z,16.68
2023-10-07T14:21:49.438Z,16.53
2023-10-07T14:26:54.920Z,16.41
2023-10-07T14:32:01.154Z,16.34
2023-10-07T14:37:06.066Z,16.23
2023-10-07T14:42:11.556Z,16.13
2023-10-07T14:47:17.621Z,16.03
2023-10-07T14:52:21.909Z,15.96
2023-10-07T14:57:27.518Z,15.88
2023-10-07T15:02:33.455Z,15.82
2023-10-07T15:07:39.087Z,15.72
2023-10-07T15:12:45.091Z,15.69
2023-10-07T15:17:51.217Z,15.62
2023-10-07T15:22:57.191Z,15.50
2023-10-07T15:28:04.328Z,15.35
2023-10-07T15:33:10.666Z,15.22
2023-10-07T15:38:16.035Z,15.10
2023-10-07T15:43:20.463Z,14.96
2023-10-07T15:48:27.409Z,14.79
2023-10-07T15:53:34.674Z,14.63
2023-10-07T15:58:39.573Z,14.48
2023-10-07T16:03:45.462Z,14.33
2023-10-07T16:08:52.863Z,14.27
2023-10-07T16:13:59.169Z,14.20
2023-10-07T16:19:05.229Z,14.11
2023-10-07T16:24:14.779Z,14.03
2023-10-07T16:29:20.966Z,13.95
2023-10-07T16:34:28.188Z,13.89
2023-10-07T16:39:32.288Z,13.80
2023-10-07T16:44:38.122Z,13.71
2023-10-07T16:49:43.779Z,13.63
2023-10-07T16:54:47.800Z,13.57
2023-10-07T16:59:52.165Z,13.50
2023-10-07T17:04:57.755Z,13.40
2023-10-07T17:10:07.663Z,13.29
2023-10-07T17:15:12.413Z,13.23
2023-10-07T17:20:18.104Z,13.19
2023-10-07T17:25:23.667Z,13.13
2023-10-07T17:30:31.433Z,13.04
2023-10-07T17:35:37.168Z,12.94
2023-10-07T17:40:42.899Z,12.87
2023-10-07T17:45:49.144Z,12.85
2023-10-07T17:50:55.113Z,12.78
2023-10-07T17:56:05.711Z,12.70
2023-10-07T18:01:10.231Z,12.63
2023-10-07T18:06:15.141Z,12.55
2023-10-07T18:11:20.917Z,12.55
2023-10-07T18:16:26.447Z,12.58
2023-10-07T18:21:33.913Z,12.55
2023-10-07T18:26:41.579Z,12.50
2023-10-07T18:31:47.472Z,12.47
2023-10-07T18:36:58.282Z,12.46
2023-10-07T18:42:02.733Z,12.40
2023-10-07T18:47:08.269Z,12.29
2023-10-07T18:52:15.755Z,12.20
2023-10-07T18:57:21.583Z,12.09
2023-10-07T19:02:27.499Z,12.05
2023-10-07T19:07:33.318Z,12.06
2023-10-07T19:12:37.517Z,12.08
2023-10-07T19:17:43.806Z,12.11
2023-10-07T19:22:49.500Z,12.06
2023-10-07T19:27:55.059Z,11.94
2023-10-07T19:33:00.662Z,11.88
2023-10-07T19:38:08.708Z,11.83
2023-10-07T19:43:14.975Z,11.76
2023-10-07T19:48:21.648Z,11.67
2023-10-07T19:53:29.437Z,11.63
2023-10-07T19:58:35.013Z,11.60
2023-10-07T20:03:40.602Z,11.59
2023-10-07T20:08:46.318Z,11.58
2023-10-07T20:13:50.991Z,11.56
2023-10-07T20:18:59.877Z,11.54
2023-10-07T20:24:14.463Z,11.54
2023-10-07T20:29:25.329Z,11.51
2023-10-07T20:34:35.583Z,11.47
2023-10-07T20:39:43.711Z,11.44
2023-10-07T20:44:51.628Z,11.41
2023-10-07T20:49:58.077Z,11.39
2023-10-07T20:57:22.086Z,11.38
2023-10-07T21:02:36.855Z,11.32
2023-10-07T21:07:46.021Z,11.31
2023-10-07T21:13:16.550Z,11.38
2023-10-07T21:18:30.091Z,11.40
2023-10-07T21:24:02.796Z,11.38
2023-10-07T21:29:21.476Z,11.29
2023-10-07T21:34:33.263Z,11.10
2023-10-07T21:39:40.311Z,10.90
2023-10-07T21:44:46.025Z,10.69
2023-10-07T21:49:52.077Z,10.51
2023-10-07T21:55:00.395Z,10.43
2023-10-07T22:00:25.936Z,10.40
2023-10-07T22:05:35.036Z,10.37
2023-10-07T22:10:41.192Z,10.28
2023-10-07T22:15:53.379Z,10.25
2023-10-07T22:20:59.287Z,10.27
2023-10-07T22:26:09.468Z,10.33
2023-10-07T22:31:15.470Z,10.41
2023-10-07T22:36:24.285Z,10.48
2023-10-07T22:41:39.393Z,10.50
2023-10-07T22:46:46.000Z,10.52
2023-10-07T22:51:54.863Z,10.57
2023-10-07T22:57:01.713Z,10.56
2023-10-07T23:02:13.030Z,10.53
2023-10-07T23:07:25.130Z,10.52
2023-10-07T23:12:39.676Z,10.55
2023-10-07T23:17:52.853Z,10.54
2023-10-07T23:23:13.364Z,10.52
2023-10-07T23:28:35.986Z,10.52
2023-10-07T23:33:41.618Z,10.55
2023-10-07T23:38:50.433Z,10.56
2023-10-07T23:43:56.617Z,10.55
2023-10-07T23:49:13.726Z,10.55
2023-10-07T23:54:20.493Z,10.56
2023-10-07T23:59:26.587Z,10.54
